Time;durP1;ratioP1;P1;durP2;ratioP2;P2;SDS_P1;SDS_P2;PMS_P1;PMS_P2;Temp;Humidity;BMP_temperature;BMP_pressure;BME280_temperature;BME280_humidity;BME280_pressure;Samples;Min_cycle;Max_cycle;Signal;HPM_P1;HPM_P2
2024/01/05 00:01:07;;;;;;;2.27;2.07;;;;;;;3.65;58.15;100306.91;4994454;28;106533;-51
2024/01/05 00:03:32;;;;;;;3.50;2.43;;;;;;;3.64;58.62;100308.88;4993340;28;98230;-51
2024/01/05 00:05:57;;;;;;;2.30;2.10;;;;;;;3.67;58.63;100313.41;4998236;28;96679;-51
2024/01/05 00:08:23;;;;;;;2.23;2.10;;;;;;;3.73;58.72;100314.22;4999767;28;99190;-51
2024/01/05 00:10:48;;;;;;;2.43;2.23;;;;;;;3.68;58.17;100312.19;5000794;28;99601;-51
2024/01/05 00:13:13;;;;;;;2.73;2.17;;;;;;;3.68;58.50;100303.22;4997983;28;97124;-50
2024/01/05 00:15:39;;;;;;;3.43;2.23;;;;;;;3.70;58.77;100301.53;4998517;28;98498;-51
2024/01/05 00:18:06;;;;;;;2.40;2.17;;;;;;;3.67;58.38;100299.72;5001362;28;97745;-51
2024/01/05 00:20:31;;;;;;;2.63;2.43;;;;;;;3.70;58.52;100293.31;5000300;28;96678;-51
2024/01/05 00:22:56;;;;;;;2.20;2.10;;;;;;;3.74;58.56;100288.38;4999970;28;97062;-50
2024/01/05 00:25:22;;;;;;;3.13;2.60;;;;;;;3.75;58.52;100270.72;4999742;28;97000;-51
2024/01/05 00:27:50;;;;;;;2.40;2.20;;;;;;;3.76;58.38;100285.16;4997718;28;96970;-51
2024/01/05 00:30:15;;;;;;;2.90;2.70;;;;;;;3.75;58.60;100270.72;4998190;28;97608;-51
2024/01/05 00:32:40;;;;;;;2.47;2.37;;;;;;;3.74;58.77;100271.97;5001968;28;96835;-51
2024/01/05 00:35:06;;;;;;;2.73;2.53;;;;;;;3.77;58.52;100271.00;4997733;28;100142;-51
2024/01/05 00:37:32;;;;;;;2.80;2.60;;;;;;;3.78;58.49;100272.50;4999117;28;96890;-51
2024/01/05 00:39:57;;;;;;;2.60;2.40;;;;;;;3.79;58.78;100268.56;5001345;28;97067;-51
2024/01/05 00:42:22;;;;;;;3.30;3.00;;;;;;;3.78;58.66;100266.28;4998302;28;98071;-51
2024/01/05 00:44:48;;;;;;;2.80;2.60;;;;;;;3.74;58.71;100265.75;5001246;28;97169;-51
2024/01/05 00:47:13;;;;;;;2.97;2.70;;;;;;;3.71;58.57;100283.09;4996093;28;111663;-51
2024/01/05 00:49:38;;;;;;;2.80;2.60;;;;;;;3.74;58.40;100261.03;5000828;28;97103;-51
2024/01/05 00:52:04;;;;;;;3.03;2.83;;;;;;;3.74;58.84;100261.03;5000935;28;96633;-51
2024/01/05 00:54:29;;;;;;;2.53;2.33;;;;;;;3.76;58.63;100263.28;5002174;28;97193;-51
2024/01/05 00:56:55;;;;;;;2.73;2.50;;;;;;;3.73;58.43;100259.50;4999411;28;105884;-51
2024/01/05 00:59:20;;;;;;;2.57;2.40;;;;;;;3.68;58.70;100259.44;5003899;28;97005;-51
2024/01/05 01:01:46;;;;;;;2.53;2.33;;;;;;;3.69;58.59;100252.75;4997689;28;97159;-51
2024/01/05 01:04:12;;;;;;;2.57;2.37;;;;;;;3.71;58.96;100261.22;4999878;28;96944;-51
2024/01/05 01:06:37;;;;;;;3.10;2.80;;;;;;;3.76;58.94;100261.31;4995936;28;97433;-51
2024/01/05 01:09:03;;;;;;;2.60;2.40;;;;;;;3.78;58.60;100258.84;4999558;28;100876;-51
2024/01/05 01:11:28;;;;;;;2.40;2.20;;;;;;;3.78;58.52;100256.09;5001402;28;97099;-51
2024/01/05 01:13:53;;;;;;;7.03;2.63;;;;;;;3.81;58.41;100257.88;4998955;28;97127;-51
2024/01/05 01:16:19;;;;;;;2.17;2.07;;;;;;;3.80;58.41;100253.63;4998164;28;99012;-51
2024/01/05 01:18:44;;;;;;;2.33;2.13;;;;;;;3.77;58.35;100249.09;4995911;28;99165;-51
2024/01/05 01:21:09;;;;;;;2.20;2.10;;;;;;;3.77;58.53;100243.63;4996303;28;97741;-51
2024/01/05 01:23:35;;;;;;;2.40;2.20;;;;;;;3.74;58.29;100246.59;4995113;28;96884;-51
2024/01/05 01:26:00;;;;;;;2.20;2.10;;;;;;;3.69;58.35;100239.81;4996602;28;97465;-51
2024/01/05 01:28:25;;;;;;;2.40;1.87;;;;;;;3.70;58.53;100233.13;4996655;28;104373;-51
2024/01/05 01:30:51;;;;;;;2.10;2.00;;;;;;;3.71;58.39;100226.41;4998335;28;96794;-51
2024/01/05 01:33:16;;;;;;;3.27;2.17;;;;;;;3.69;58.74;100215.19;4996370;28;99123;-50
2024/01/05 01:35:41;;;;;;;2.80;2.27;;;;;;;3.66;58.79;100226.34;4995016;28;109160;-50
2024/01/05 01:38:07;;;;;;;2.30;2.10;;;;;;;3.68;58.76;100221.91;4994972;28;97311;-51
2024/01/05 01:40:32;;;;;;;2.30;2.20;;;;;;;3.71;58.64;100214.72;4993055;28;99306;-51
2024/01/05 01:42:57;;;;;;;3.10;2.30;;;;;;;3.71;58.82;100212.72;4995783;28;96666;-51
2024/01/05 01:45:23;;;;;;;3.13;2.80;;;;;;;3.66;58.54;100218.91;4996690;28;97683;-51
2024/01/05 01:47:49;;;;;;;2.77;2.57;;;;;;;3.66;58.48;100205.22;4995514;28;97014;-51
2024/01/05 01:50:15;;;;;;;3.03;2.73;;;;;;;3.62;58.94;100215.59;4996710;28;97105;-50
2024/01/05 01:52:45;;;;;;;2.90;2.70;;;;;;;3.63;58.73;100222.59;4995119;28;96821;-51
2024/01/05 01:55:12;;;;;;;3.33;3.03;;;;;;;3.61;58.92;100208.66;4994736;28;96990;-51
2024/01/05 01:57:38;;;;;;;3.30;3.00;;;;;;;3.61;58.76;100214.13;4995990;28;96792;-51
2024/01/05 02:00:05;;;;;;;5.90;3.63;;;;;;;3.56;58.51;100209.31;4997248;28;97756;-50
2024/01/05 02:02:31;;;;;;;3.03;2.60;;;;;;;3.58;58.83;100206.84;4997963;28;97002;-51
2024/01/05 02:04:58;;;;;;;3.30;3.00;;;;;;;3.58;59.12;100217.03;4994216;28;97171;-50
2024/01/05 02:07:23;;;;;;;3.30;3.00;;;;;;;3.59;58.80;100197.44;4994668;28;96798;-51
2024/01/05 02:09:48;;;;;;;3.60;3.17;;;;;;;3.56;58.74;100190.16;4996233;28;97724;-51
2024/01/05 02:12:14;;;;;;;4.00;3.60;;;;;;;3.59;58.76;100194.69;4995130;28;97143;-51
2024/01/05 02:14:39;;;;;;;4.30;3.30;;;;;;;3.61;58.73;100197.69;4994526;28;96800;-51
2024/01/05 02:17:31;;;;;;;3.27;2.97;;;;;;;3.63;58.90;100184.31;4992561;28;97096;-51
2024/01/05 02:19:57;;;;;;;3.27;2.97;;;;;;;3.64;58.81;100174.13;4998120;28;97050;-51
2024/01/05 02:22:26;;;;;;;4.80;3.67;;;;;;;3.64;58.87;100174.13;4996083;28;97128;-51
2024/01/05 02:24:51;;;;;;;3.57;3.27;;;;;;;3.61;59.09;100177.81;4992726;28;99448;-51
2024/01/05 02:27:17;;;;;;;3.47;3.17;;;;;;;3.56;59.10;100162.06;4994972;28;97118;-51
2024/01/05 02:29:42;;;;;;;5.80;4.00;;;;;;;3.55;59.07;100161.34;4996162;28;98166;-51
2024/01/05 02:32:07;;;;;;;4.80;3.93;;;;;;;3.57;58.97;100161.59;4994531;28;96696;-51
2024/01/05 02:34:33;;;;;;;5.93;3.50;;;;;;;3.54;58.96;100164.53;4995092;28;105526;-50
2024/01/05 02:36:58;;;;;;;5.60;3.70;;;;;;;3.48;59.24;100156.28;4995608;28;99685;-51
2024/01/05 02:39:23;;;;;;;6.70;3.80;;;;;;;3.48;59.07;100152.78;4994962;28;97180;-51
2024/01/05 02:41:49;;;;;;;8.20;5.10;;;;;;;3.38;59.39;100152.16;4996270;28;96982;-50
2024/01/05 02:44:14;;;;;;;5.40;3.97;;;;;;;3.35;59.50;100142.19;4995444;28;97877;-51
2024/01/05 02:46:39;;;;;;;4.30;3.90;;;;;;;3.33;59.39;100139.19;4994389;28;98286;-50
2024/01/05 02:49:05;;;;;;;5.13;4.30;;;;;;;3.32;59.44;100134.94;4993666;28;97289;-50
2024/01/05 02:51:30;;;;;;;7.10;4.23;;;;;;;3.34;59.58;100134.47;4995242;28;97040;-50
2024/01/05 02:53:56;;;;;;;6.50;4.70;;;;;;;3.31;59.63;100130.72;4992798;28;97699;-51
2024/01/05 02:56:22;;;;;;;4.67;4.20;;;;;;;3.29;60.00;100122.25;4993965;28;97145;-50
2024/01/05 02:58:48;;;;;;;7.13;4.50;;;;;;;3.30;59.91;100119.03;4996940;28;97202;-51
2024/01/05 03:01:17;;;;;;;7.00;4.20;;;;;;;3.32;59.65;100115.81;4995189;28;96974;-50
2024/01/05 03:03:48;;;;;;;4.73;4.20;;;;;;;3.30;59.91;100104.59;4992000;28;97378;-50
2024/01/05 03:06:15;;;;;;;6.10;4.07;;;;;;;3.29;59.92;100119.50;4994128;28;97234;-50
2024/01/05 03:08:40;;;;;;;7.90;4.03;;;;;;;3.26;59.94;100107.56;4994179;28;98177;-50
2024/01/05 03:11:06;;;;;;;6.33;4.30;;;;;;;3.21;60.24;100102.75;4997643;28;101720;-51
2024/01/05 03:13:31;;;;;;;6.93;4.90;;;;;;;3.21;59.88;100093.81;4985772;28;99627;-50
2024/01/05 03:15:57;;;;;;;6.07;4.87;;;;;;;3.21;60.30;100094.56;4993229;28;97109;-51
2024/01/05 03:18:22;;;;;;;7.73;5.13;;;;;;;3.21;60.31;100082.88;4991890;28;97483;-51
2024/01/05 03:20:47;;;;;;;5.30;4.60;;;;;;;3.10;60.49;100094.41;4992761;28;96961;-51
2024/01/05 03:23:14;;;;;;;8.50;5.57;;;;;;;3.08;60.48;100090.66;4995198;28;102892;-51
2024/01/05 03:25:40;;;;;;;9.13;5.13;;;;;;;3.09;60.60;100081.25;4995839;28;97385;-51
2024/01/05 03:28:05;;;;;;;7.30;5.77;;;;;;;3.03;60.30;100086.63;4993560;28;97122;-50
2024/01/05 03:30:30;;;;;;;9.53;5.30;;;;;;;3.05;60.84;100077.97;4996353;28;97154;-51
2024/01/05 03:32:56;;;;;;;7.50;4.80;;;;;;;3.05;60.56;100083.44;4990293;28;106766;-50
2024/01/05 03:35:21;;;;;;;8.60;5.07;;;;;;;3.06;60.60;100076.72;4992151;28;98507;-51
2024/01/05 03:37:46;;;;;;;9.23;5.47;;;;;;;3.06;60.85;100079.47;4991433;28;97214;-51
2024/01/05 03:40:12;;;;;;;6.77;5.10;;;;;;;3.00;61.00;100078.66;4992040;28;97295;-51
2024/01/05 03:42:37;;;;;;;6.07;4.67;;;;;;;3.00;61.01;100081.38;4991060;28;97041;-51
2024/01/05 03:45:02;;;;;;;7.27;5.73;;;;;;;3.03;61.08;100072.22;4994273;28;97981;-51
2024/01/05 03:47:28;;;;;;;7.60;5.13;;;;;;;3.04;61.27;100068.25;4994247;28;97182;-51
2024/01/05 03:49:53;;;;;;;9.03;5.20;;;;;;;3.06;60.91;100065.78;4992929;28;97627;-51
2024/01/05 03:52:18;;;;;;;9.07;5.77;;;;;;;3.00;61.05;100062.25;4992435;28;111232;-51
2024/01/05 03:54:44;;;;;;;9.33;5.60;;;;;;;2.94;60.93;100054.00;4996037;28;98824;-51
2024/01/05 03:57:09;;;;;;;9.63;5.60;;;;;;;2.98;61.00;100054.53;4994193;28;96801;-51
2024/01/05 03:59:34;;;;;;;4.77;4.27;;;;;;;2.95;61.27;100058.22;4994897;28;96844;-50
2024/01/05 04:02:00;;;;;;;7.90;4.80;;;;;;;2.97;61.36;100039.38;4993177;28;96992;-51
2024/01/05 04:04:26;;;;;;;7.50;5.33;;;;;;;3.01;61.18;100044.63;4995722;28;98050;-51
2024/01/05 04:06:51;;;;;;;6.83;5.70;;;;;;;3.02;61.15;100043.41;4992513;28;97307;-51
2024/01/05 04:09:16;;;;;;;8.30;5.60;;;;;;;3.01;61.36;100037.16;4993504;28;97389;-51
2024/01/05 04:11:42;;;;;;;7.63;6.00;;;;;;;2.99;61.44;100030.69;4994041;28;96936;-51
2024/01/05 04:14:08;;;;;;;7.80;5.23;;;;;;;3.03;61.38;100020.31;4999388;28;97142;-51
2024/01/05 04:16:33;;;;;;;8.00;5.50;;;;;;;3.01;61.33;100025.50;4992769;28;96724;-51
2024/01/05 04:18:58;;;;;;;6.83;5.30;;;;;;;2.99;61.25;100025.97;4992476;28;96723;-51
2024/01/05 04:21:24;;;;;;;5.83;5.00;;;;;;;3.00;61.13;100018.53;4992771;28;98445;-51
2024/01/05 04:23:53;;;;;;;10.10;5.70;;;;;;;3.03;61.23;100018.31;4992795;28;96901;-50
2024/01/05 04:26:25;;;;;;;8.23;5.90;;;;;;;3.07;61.37;100020.84;4992555;28;97018;-51
2024/01/05 04:28:51;;;;;;;8.70;5.50;;;;;;;3.03;61.06;100023.78;4990422;28;96927;-50
2024/01/05 04:31:16;;;;;;;8.83;6.40;;;;;;;2.96;61.51;100012.53;4995873;28;97290;-50
2024/01/05 04:33:42;;;;;;;8.87;6.77;;;;;;;2.99;61.97;100011.56;4995590;28;97748;-51
2024/01/05 04:36:07;;;;;;;5.80;5.03;;;;;;;2.96;61.72;100012.53;4996240;28;97407;-51
2024/01/05 04:38:34;;;;;;;8.57;5.73;;;;;;;2.98;61.81;100012.78;4995010;28;97159;-51
2024/01/05 04:41:00;;;;;;;8.03;5.80;;;;;;;2.98;61.80;100013.56;4992223;28;97372;-51
2024/01/05 04:43:25;;;;;;;8.70;6.00;;;;;;;2.96;61.43;100007.06;4992028;28;97600;-51
2024/01/05 04:45:51;;;;;;;7.90;5.50;;;;;;;2.92;61.83;100007.25;4997382;28;97375;-51
2024/01/05 04:48:16;;;;;;;9.70;5.67;;;;;;;2.94;61.86;100007.56;4993498;28;97204;-51
2024/01/05 04:50:42;;;;;;;5.90;5.30;;;;;;;2.96;61.82;100018.00;4997132;28;97235;-51
2024/01/05 04:53:07;;;;;;;8.40;4.97;;;;;;;2.90;61.86;100009.72;4994479;28;97405;-51
2024/01/05 04:55:32;;;;;;;8.53;5.70;;;;;;;2.91;61.67;100002.28;4997465;28;97641;-51
2024/01/05 04:57:58;;;;;;;6.83;5.30;;;;;;;2.94;61.97;99991.16;4997808;28;96695;-51
2024/01/05 05:00:23;;;;;;;5.40;4.57;;;;;;;2.93;62.02;99983.44;4997829;28;98476;-51
2024/01/05 05:02:48;;;;;;;6.23;4.67;;;;;;;2.94;62.01;99984.94;4996046;28;96722;-51
2024/01/05 05:05:14;;;;;;;6.17;5.07;;;;;;;2.91;62.08;99974.97;4994959;28;97044;-51
2024/01/05 05:07:39;;;;;;;7.40;4.73;;;;;;;2.89;61.83;99969.22;4997949;28;97093;-51
2024/01/05 05:10:05;;;;;;;7.63;5.27;;;;;;;2.90;62.00;99974.19;4999799;28;97125;-51
2024/01/05 05:12:30;;;;;;;6.00;4.40;;;;;;;2.92;62.13;99976.47;4996804;28;97163;-51
2024/01/05 05:14:55;;;;;;;4.50;3.90;;;;;;;2.85;62.29;99955.78;4997015;28;97015;-51
2024/01/05 05:17:21;;;;;;;6.90;4.80;;;;;;;2.82;62.30;99964.19;4996257;28;97013;-51
2024/01/05 05:19:46;;;;;;;6.00;4.30;;;;;;;2.80;62.32;99961.19;4998025;28;97054;-51
2024/01/05 05:22:12;;;;;;;4.60;4.10;;;;;;;2.83;62.22;99943.84;4993460;28;97850;-50
2024/01/05 05:24:37;;;;;;;5.87;4.73;;;;;;;2.82;62.39;99943.09;4999023;28;96682;-50
2024/01/05 05:27:02;;;;;;;5.13;4.20;;;;;;;2.81;62.67;99946.31;4996004;28;96701;-51
2024/01/05 05:29:28;;;;;;;4.80;4.10;;;;;;;2.81;62.42;99935.38;4996492;28;98034;-51
2024/01/05 05:31:53;;;;;;;4.67;4.17;;;;;;;2.82;62.49;99945.81;4997413;28;97825;-51
2024/01/05 05:34:18;;;;;;;4.20;3.80;;;;;;;2.84;62.51;99945.31;4998194;28;96719;-51
2024/01/05 05:36:44;;;;;;;4.53;4.07;;;;;;;2.82;62.25;99939.59;4996026;28;97126;-51
2024/01/05 05:39:10;;;;;;;4.83;3.80;;;;;;;2.86;62.62;99948.31;4996881;28;97902;-51
2024/01/05 05:41:36;;;;;;;4.57;4.13;;;;;;;2.89;62.59;99959.06;4996546;28;97283;-51
2024/01/05 05:44:01;;;;;;;4.43;4.00;;;;;;;2.94;62.45;99943.97;4994902;28;97151;-51
2024/01/05 05:46:28;;;;;;;3.77;3.37;;;;;;;2.94;62.70;99955.66;4994803;28;97236;-51
2024/01/05 05:48:53;;;;;;;4.87;3.67;;;;;;;2.95;62.41;99948.19;4995795;28;97042;-51
2024/01/05 05:51:18;;;;;;;4.80;4.30;;;;;;;2.97;62.64;99951.19;4997829;28;96779;-51
2024/01/05 05:53:45;;;;;;;4.20;3.90;;;;;;;2.95;62.67;99948.94;4993766;28;97101;-51
2024/01/05 05:56:10;;;;;;;5.53;4.17;;;;;;;2.94;62.62;99947.44;4995398;28;99593;-51
2024/01/05 05:58:35;;;;;;;5.77;4.40;;;;;;;2.94;62.45;99941.97;4995006;28;97340;-51
2024/01/05 06:01:01;;;;;;;5.30;4.03;;;;;;;2.95;62.74;99939.97;4997031;28;101914;-51
2024/01/05 06:03:26;;;;;;;3.90;3.53;;;;;;;2.93;62.73;99942.44;4996372;28;96917;-50
2024/01/05 06:05:51;;;;;;;4.80;4.30;;;;;;;2.91;62.84;99939.44;4996029;28;97347;-51
2024/01/05 06:08:17;;;;;;;5.57;4.50;;;;;;;2.85;62.92;99942.13;4996457;28;97216;-51
2024/01/05 06:10:42;;;;;;;4.90;4.37;;;;;;;2.88;62.71;99956.78;4995743;28;96752;-51
2024/01/05 06:13:08;;;;;;;6.03;4.37;;;;;;;2.91;62.96;99961.31;4995433;28;97114;-51
2024/01/05 06:15:33;;;;;;;6.47;4.17;;;;;;;2.95;62.76;99970.03;4996148;28;97099;-51
2024/01/05 06:17:58;;;;;;;4.17;3.77;;;;;;;2.95;62.85;99964.56;4994876;28;96713;-51
2024/01/05 06:20:25;;;;;;;4.47;4.07;;;;;;;2.94;62.71;99960.34;4994028;28;105596;-51
2024/01/05 06:22:50;;;;;;;3.80;3.30;;;;;;;2.95;62.71;99957.13;4995151;28;97240;-51
2024/01/05 06:25:15;;;;;;;4.20;3.70;;;;;;;2.99;62.61;99956.91;4993909;28;97254;-50
2024/01/05 06:27:41;;;;;;;4.33;3.93;;;;;;;3.01;63.00;99952.47;4994273;28;97861;-51
2024/01/05 06:30:11;;;;;;;4.33;3.93;;;;;;;3.04;63.06;99954.25;4994305;28;98446;-51
2024/01/05 06:32:37;;;;;;;3.60;3.30;;;;;;;3.04;62.83;99958.97;4995756;28;96623;-50
2024/01/05 06:35:04;;;;;;;4.93;4.47;;;;;;;3.00;62.70;99964.66;4998039;28;97195;-50
2024/01/05 06:37:29;;;;;;;4.53;4.10;;;;;;;3.02;62.94;99973.13;4995781;28;96776;-51
2024/01/05 06:39:55;;;;;;;4.40;3.90;;;;;;;2.99;63.03;99954.94;4994425;28;110185;-50
2024/01/05 06:42:21;;;;;;;5.70;4.30;;;;;;;3.00;62.94;99952.97;4996411;28;97361;-51
2024/01/05 06:44:47;;;;;;;3.70;3.30;;;;;;;3.03;63.17;99949.28;4995054;28;97146;-51
2024/01/05 06:47:12;;;;;;;4.13;3.73;;;;;;;2.99;63.15;99933.06;4995645;28;97010;-50
2024/01/05 06:49:37;;;;;;;3.67;3.37;;;;;;;2.98;63.14;99945.25;4993402;28;97528;-51
2024/01/05 06:52:03;;;;;;;3.67;3.03;;;;;;;2.96;63.54;99944.22;4993075;28;97446;-51
2024/01/05 06:54:28;;;;;;;3.10;2.90;;;;;;;2.94;63.31;99938.50;4993943;28;96605;-51
2024/01/05 06:56:54;;;;;;;3.97;3.30;;;;;;;2.96;63.10;99927.84;4995528;28;97302;-51
2024/01/05 06:59:20;;;;;;;3.33;3.03;;;;;;;2.98;63.56;99931.59;4993726;28;98686;-51
2024/01/05 07:01:46;;;;;;;5.30;4.03;;;;;;;2.95;62.87;99918.88;4995187;28;97106;-51
2024/01/05 07:04:12;;;;;;;4.00;3.60;;;;;;;2.93;63.26;99915.88;4999036;28;96711;-51
2024/01/05 07:06:41;;;;;;;3.53;3.23;;;;;;;2.98;63.73;99911.72;4994055;28;99691;-51
2024/01/05 07:09:07;;;;;;;5.20;3.53;;;;;;;2.97;63.66;99910.94;4993968;28;97157;-50
2024/01/05 07:11:32;;;;;;;2.97;2.77;;;;;;;2.96;63.36;99908.72;4996862;28;96699;-51
2024/01/05 07:13:58;;;;;;;3.47;3.17;;;;;;;2.95;63.25;99915.41;4992250;28;97227;-51
2024/01/05 07:16:23;;;;;;;3.30;3.10;;;;;;;2.92;63.40;99902.72;4994487;28;96830;-51
2024/01/05 07:18:49;;;;;;;3.17;2.90;;;;;;;2.92;63.47;99914.38;4991359;28;98523;-51
2024/01/05 07:21:15;;;;;;;4.60;2.80;;;;;;;2.94;63.46;99902.97;4992354;28;96748;-50
2024/01/05 07:23:42;;;;;;;2.90;2.60;;;;;;;2.96;63.52;99914.19;4996775;28;97462;-51
2024/01/05 07:26:08;;;;;;;3.40;3.10;;;;;;;2.94;63.78;99911.19;4994454;28;97103;-51
2024/01/05 07:28:33;;;;;;;2.80;2.60;;;;;;;2.87;63.92;99917.06;4994562;28;97140;-55
2024/01/05 07:31:03;;;;;;;2.73;2.50;;;;;;;2.91;63.83;99918.34;4992615;28;98085;-51
2024/01/05 07:33:29;;;;;;;2.63;2.53;;;;;;;2.94;63.85;99917.41;4996024;28;96992;-52
2024/01/05 07:35:54;;;;;;;4.00;2.60;;;;;;;2.97;63.40;99912.94;4996108;28;98635;-50
2024/01/05 07:38:20;;;;;;;2.53;2.40;;;;;;;2.93;63.81;99909.66;4992502;28;110237;-50
2024/01/05 07:40:46;;;;;;;2.13;2.03;;;;;;;2.90;63.89;99916.09;4993723;28;96851;-51
2024/01/05 07:43:12;;;;;;;2.47;2.27;;;;;;;2.93;63.65;99906.94;4993325;28;97665;-51
2024/01/05 07:45:38;;;;;;;2.60;2.40;;;;;;;2.94;63.82;99901.00;4996595;28;96750;-51
2024/01/05 07:48:03;;;;;;;2.07;1.93;;;;;;;2.94;64.07;99894.78;4993336;28;97119;-51
2024/01/05 07:50:30;;;;;;;3.33;2.37;;;;;;;2.96;63.63;99892.31;4990203;28;97047;-51
2024/01/05 07:52:55;;;;;;;3.67;2.53;;;;;;;2.95;63.72;99890.81;4995205;28;97292;-51
2024/01/05 07:55:21;;;;;;;3.60;1.97;;;;;;;2.92;63.76;99891.78;4993505;28;97837;-51
2024/01/05 07:57:46;;;;;;;2.50;2.40;;;;;;;2.91;63.96;99887.53;4992499;28;111243;-51
2024/01/05 08:00:12;;;;;;;2.60;2.40;;;;;;;2.82;63.94;99884.97;4996189;28;97203;-51
2024/01/05 08:02:37;;;;;;;2.43;2.23;;;;;;;2.83;64.24;99883.75;4994493;28;96819;-51
2024/01/05 08:05:03;;;;;;;2.70;1.90;;;;;;;2.86;64.04;99880.03;4990592;28;97449;-51
2024/01/05 08:07:28;;;;;;;2.30;2.13;;;;;;;2.87;64.07;99882.31;4990627;28;98490;-51
2024/01/05 08:09:53;;;;;;;1.53;1.47;;;;;;;2.91;64.39;99898.47;4992002;28;97180;-51
2024/01/05 08:12:20;;;;;;;2.77;2.43;;;;;;;2.89;63.99;99876.34;4993198;28;97049;-51
2024/01/05 08:14:46;;;;;;;2.13;2.03;;;;;;;2.87;63.83;99867.88;4992399;28;98837;-51
2024/01/05 08:17:11;;;;;;;2.47;2.27;;;;;;;2.86;64.24;99863.66;4995542;28;97081;-51
2024/01/05 08:19:36;;;;;;;2.23;2.10;;;;;;;2.86;64.08;99869.88;4998126;28;96948;-51
2024/01/05 08:22:02;;;;;;;2.70;2.13;;;;;;;2.92;64.17;99867.94;5000461;28;97315;-51
2024/01/05 08:24:27;;;;;;;1.80;1.70;;;;;;;2.90;64.20;99866.94;4990693;28;96644;-51
2024/01/05 08:26:54;;;;;;;2.10;1.90;;;;;;;2.89;64.02;99871.66;4995643;28;96999;-51
2024/01/05 08:29:21;;;;;;;2.50;2.10;;;;;;;2.90;64.03;99875.13;4995659;28;97121;-51
2024/01/05 08:31:51;;;;;;;2.30;2.20;;;;;;;2.93;63.98;99872.19;4996486;28;96562;-51
2024/01/05 08:34:16;;;;;;;2.73;2.10;;;;;;;2.94;64.08;99879.16;5003635;28;98236;-51
2024/01/05 08:36:42;;;;;;;3.67;2.60;;;;;;;2.91;64.30;99893.00;4997176;28;97246;-51
2024/01/05 08:39:07;;;;;;;2.17;2.07;;;;;;;2.88;64.17;99888.50;4997916;28;97648;-53
2024/01/05 08:41:33;;;;;;;2.10;2.00;;;;;;;2.90;64.28;99886.78;4999455;28;97172;-51
2024/01/05 08:43:58;;;;;;;1.90;1.80;;;;;;;2.92;64.39;99884.31;4997758;28;96818;-51
2024/01/05 08:46:27;;;;;;;2.03;1.93;;;;;;;2.92;64.47;99889.78;4994864;28;97302;-51
2024/01/05 08:48:52;;;;;;;1.97;1.87;;;;;;;2.92;64.40;99916.38;4995202;28;97181;-51
2024/01/05 08:51:18;;;;;;;1.73;1.63;;;;;;;2.96;64.28;99893.06;4994706;28;96928;-51
2024/01/05 08:53:43;;;;;;;2.60;2.40;;;;;;;3.04;64.16;99898.84;4999956;28;99988;-51
2024/01/05 08:56:10;;;;;;;2.07;1.97;;;;;;;3.06;64.21;99899.88;4997493;28;97489;-51
2024/01/05 08:58:35;;;;;;;2.17;2.07;;;;;;;3.07;64.15;99904.13;5000302;28;97073;-51
2024/01/05 09:01:00;;;;;;;2.20;2.00;;;;;;;3.10;64.04;99894.19;4997685;28;96940;-51
2024/01/05 09:03:26;;;;;;;2.20;2.10;;;;;;;3.09;63.82;99896.19;4995863;28;97713;-52
2024/01/05 09:05:51;;;;;;;3.27;2.40;;;;;;;3.09;64.34;99898.16;4996004;28;100281;-51
2024/01/05 09:08:16;;;;;;;2.13;2.03;;;;;;;3.09;64.21;99900.88;4995241;28;96641;-57
2024/01/05 09:10:42;;;;;;;1.80;1.70;;;;;;;3.12;64.20;99906.13;4997444;28;96874;-51
2024/01/05 09:13:07;;;;;;;1.80;1.70;;;;;;;3.16;64.08;99900.47;4995472;28;97347;-52
2024/01/05 09:15:33;;;;;;;2.07;1.90;;;;;;;3.12;64.05;99906.13;4995751;28;97072;-52
2024/01/05 09:17:59;;;;;;;1.90;1.80;;;;;;;3.13;63.85;99906.88;4996684;28;97247;-51
2024/01/05 09:20:24;;;;;;;2.37;1.80;;;;;;;3.13;64.22;99904.16;4994882;28;96879;-52
2024/01/05 09:22:50;;;;;;;6.87;2.60;;;;;;;3.14;64.26;99906.41;4996631;28;97469;-52
2024/01/05 09:25:15;;;;;;;1.77;1.67;;;;;;;3.18;63.98;99903.47;4994625;28;96664;-52
2024/01/05 09:27:41;;;;;;;1.97;1.87;;;;;;;3.19;64.01;99910.41;4997107;28;97150;-52
2024/01/05 09:30:07;;;;;;;1.87;1.77;;;;;;;3.22;63.91;99904.00;4994768;28;96773;-51
2024/01/05 09:32:33;;;;;;;1.77;1.67;;;;;;;3.19;64.31;99904.94;4996993;28;98683;-52
2024/01/05 09:34:58;;;;;;;1.87;1.77;;;;;;;3.22;64.23;99904.00;4996417;28;99064;-51
2024/01/05 09:37:23;;;;;;;2.23;2.00;;;;;;;3.19;63.97;99910.41;4995423;28;96572;-51
2024/01/05 09:39:49;;;;;;;1.70;1.60;;;;;;;3.19;64.29;99908.44;4992677;28;96708;-51
2024/01/05 09:42:14;;;;;;;4.33;1.90;;;;;;;3.22;64.45;99912.19;5001652;28;96882;-51
2024/01/05 09:44:40;;;;;;;1.60;1.50;;;;;;;3.19;64.20;99910.41;4996860;28;96803;-51
2024/01/05 09:47:06;;;;;;;2.10;1.90;;;;;;;3.17;64.23;99901.94;5003472;28;97807;-51
2024/01/05 09:49:34;;;;;;;1.70;1.60;;;;;;;3.20;64.18;99911.94;4994618;28;97109;-52
2024/01/05 09:52:00;;;;;;;2.13;2.03;;;;;;;3.19;64.17;99911.16;4991866;28;97150;-51
2024/01/05 09:54:25;;;;;;;1.60;1.50;;;;;;;3.22;64.37;99909.47;4996165;28;97152;-51
2024/01/05 09:56:51;;;;;;;2.20;1.50;;;;;;;3.18;64.10;99906.91;4996070;28;96912;-51
2024/01/05 09:59:19;;;;;;;1.63;1.53;;;;;;;3.15;64.19;99909.88;4996887;28;97210;-51
2024/01/05 10:01:50;;;;;;;4.10;1.70;;;;;;;3.16;64.60;99922.31;4994540;28;97033;-51
2024/01/05 10:04:15;;;;;;;1.90;1.80;;;;;;;3.19;64.50;99907.69;4996495;28;98692;-51
2024/01/05 10:06:41;;;;;;;1.70;1.60;;;;;;;3.23;64.35;99905.47;4995905;28;96780;-51
2024/01/05 10:09:06;;;;;;;1.50;1.40;;;;;;;3.29;64.09;99898.81;4996416;28;97049;-51
2024/01/05 10:11:34;;;;;;;1.63;1.53;;;;;;;3.34;64.29;99904.84;4996234;28;97399;-51
2024/01/05 10:14:01;;;;;;;1.60;1.50;;;;;;;3.38;64.30;99888.97;4995592;28;97057;-52
2024/01/05 10:16:36;;;;;;;1.70;1.60;;;;;;;3.39;64.03;99891.22;4992915;28;97053;-51
2024/01/05 10:19:14;;;;;;;1.50;1.40;;;;;;;3.40;64.43;99895.47;4994670;28;96657;-51
2024/01/05 10:21:41;;;;;;;1.70;1.60;;;;;;;3.40;64.09;99887.25;4993518;28;97476;-51
2024/01/05 10:24:25;;;;;;;1.60;1.50;;;;;;;3.41;64.28;99891.47;4994850;28;98392;-51
2024/01/05 10:27:10;;;;;;;1.50;1.40;;;;;;;3.39;64.44;99874.06;4994886;28;97114;-51
2024/01/05 10:29:38;;;;;;;1.10;1.10;;;;;;;3.36;64.47;99881.22;4995693;28;97264;-51
2024/01/05 10:32:13;;;;;;;1.77;1.20;;;;;;;3.31;64.47;99877.22;5003498;28;99370;-51
2024/01/05 10:34:40;;;;;;;1.10;1.10;;;;;;;3.28;64.34;99874.72;5000231;28;97403;-52
2024/01/05 10:37:06;;;;;;;1.03;1.03;;;;;;;3.27;64.49;99873.97;4992923;28;97003;-51
2024/01/05 10:39:32;;;;;;;3.00;1.47;;;;;;;3.26;64.59;99875.22;4997782;28;96549;-51
2024/01/05 10:42:24;;;;;;;1.20;1.10;;;;;;;3.27;64.95;99867.75;4996180;28;96619;-51
2024/01/05 10:44:51;;;;;;;1.03;1.03;;;;;;;3.25;64.13;99865.50;4994706;28;96932;-51
2024/01/05 10:47:18;;;;;;;1.47;1.40;;;;;;;3.22;64.38;99873.94;4995558;28;97174;-51
2024/01/05 10:49:49;;;;;;;1.80;1.50;;;;;;;3.21;64.42;99864.97;4998782;28;97142;-51
2024/01/05 10:52:30;;;;;;;1.00;1.00;;;;;;;3.20;64.66;99860.75;4993331;28;96761;-51
2024/01/05 10:55:00;;;;;;;1.47;1.37;;;;;;;3.18;64.43;99846.06;4995612;28;97367;-51
2024/01/05 10:57:26;;;;;;;1.23;1.13;;;;;;;3.21;64.49;99843.09;4994963;28;97283;-51
2024/01/05 10:59:55;;;;;;;1.13;1.00;;;;;;;3.20;64.45;99835.41;4996728;28;97330;-51
2024/01/05 11:02:24;;;;;;;1.13;1.13;;;;;;;3.21;64.96;99845.09;4993277;28;97144;-51
2024/01/05 11:04:59;;;;;;;2.07;0.83;;;;;;;3.22;64.82;99835.66;4991469;28;96975;-51
2024/01/05 11:07:29;;;;;;;1.00;1.00;;;;;;;3.23;64.76;99840.63;4994798;28;96967;-51
2024/01/05 11:10:04;;;;;;;1.00;1.00;;;;;;;3.22;64.56;99830.19;4995440;28;96963;-52
2024/01/05 11:12:36;;;;;;;1.53;1.07;;;;;;;3.22;64.41;99822.00;4992216;28;97220;-51
2024/01/05 11:15:27;;;;;;;1.90;0.77;;;;;;;3.18;64.52;99821.47;4995475;28;96641;-51
2024/01/05 11:18:13;;;;;;;0.80;0.80;;;;;;;3.20;65.11;99819.75;4996130;28;97473;-52
2024/01/05 11:20:53;;;;;;;1.00;1.00;;;;;;;3.24;64.75;99820.28;4995234;28;97098;-52
2024/01/05 11:23:20;;;;;;;0.70;0.70;;;;;;;3.27;64.84;99796.69;4990690;28;96923;-51
2024/01/05 11:25:46;;;;;;;0.83;0.83;;;;;;;3.29;64.57;99807.91;4992359;28;97326;-51
2024/01/05 11:28:38;;;;;;;0.73;0.73;;;;;;;3.29;65.04;99805.16;4997704;28;97258;-51
2024/01/05 11:31:04;;;;;;;0.60;0.60;;;;;;;3.28;64.97;99809.13;5012238;28;97165;-51
2024/01/05 11:33:46;;;;;;;0.60;0.60;;;;;;;3.31;65.47;99817.09;4994076;28;98504;-51